• Join FlightAware (Why Join?)
  • Login
  • US Flag 
07:29AM EDT


 

Airport Tracker/Info


-or-


 

Live Flight TrackerFlight Track Log ✈ N818PW ✈ 09-Jul-2013 ✈ KPRG - KMSN

Flight Track Log - Related Links

Times and Time Zones

All times are in EDT time to prevent confusion due to time zone crossing. See the N818PW flight status page for this flight to view local times or setup timezone preferences in your user account.

Time Position Orientation Groundspeed Altitude Reporting Facility
EDT Latitude Longitude Course Direction KTS MPH feet Rate Location/Type
08:13PM 39.9538 -87.7835 341° North  Level FlightAware Approximate
08:14PM 39.9962 -87.8028 341° North  Level FlightAware Approximate
08:14PM 40.0870 -87.7970 340° North 183 211 6,000  Level FlightAware
08:15PM 40.1100 -87.8090 338° Northwest 182 209 6,000  Level FlightAware
08:15PM 40.1310 -87.8190 340° North 180 207 6,000  Level FlightAware
08:16PM 40.1520 -87.8290 340° North 179 206 6,000  Level FlightAware
08:16PM 40.1760 -87.8400 341° North 178 205 6,000  Level FlightAware
08:17PM 40.2020 -87.8530 339° North 174 200 6,000  Level FlightAware
08:17PM 40.2240 -87.8630 341° North 173 199 6,000  Level FlightAware
08:17PM 40.2310 -87.8670 336° Northwest 172 198 6,000  Level FlightAware
08:18PM 40.2510 -87.8760 341° North 170 196 6,000  Level FlightAware
08:18PM 40.2720 -87.8860 340° North 169 194 6,000  Level FlightAware
08:19PM 40.2890 -87.8950 338° Northwest 170 196 6,000  Level FlightAware
08:19PM 40.3130 -87.9060 341° North 170 196 6,000  Level FlightAware
08:20PM 40.3310 -87.9150 339° North 170 196 6,000  Level FlightAware
08:20PM 40.3510 -87.9250 339° North 170 196 6,000  Level FlightAware
08:21PM 40.3730 -87.9350 341° North 169 194 6,000  Level FlightAware
08:21PM 40.3830 -87.9400 339° North 168 193 6,000  Level FlightAware
08:21PM 40.4050 -87.9510 339° North 167 192 6,000  Level FlightAware
08:22PM 40.4270 -87.9620 339° North 167 192 6,000  Level FlightAware
08:22PM 40.4440 -87.9700 340° North 168 193 6,000  Level FlightAware
08:22PM 40.4550 -87.9750 341° North 168 193 6,000  Level FlightAware
08:23PM 40.4730 -87.9840 339° North 169 194 6,000  Level FlightAware
08:23PM 40.4910 -87.9920 341° North 170 196 6,000  Level FlightAware
08:23PM 40.5020 -87.9980 337° Northwest 170 196 6,000  Level FlightAware
08:24PM 40.5210 -88.0110 333° Northwest 166 191 6,000  Level FlightAware
08:24PM 40.5410 -88.0260 330° Northwest 166 191 6,000  Level FlightAware
08:25PM 40.5560 -88.0370 331° Northwest 166 191 6,000  Level FlightAware
08:25PM 40.5710 -88.0470 333° Northwest 166 191 6,000  Level FlightAware
08:26PM 40.5930 -88.0630 331° Northwest 166 191 6,000  Level FlightAware
08:26PM 40.6110 -88.0760 331° Northwest 166 191 6,000  Level FlightAware
08:27PM 40.6320 -88.0910 332° Northwest 167 192 6,000  Level FlightAware
08:27PM 40.6490 -88.1030 332° Northwest 167 192 6,000  Level FlightAware
08:27PM 40.6600 -88.1110 331° Northwest 167 192 6,000  Level FlightAware
08:28PM 40.6790 -88.1250 331° Northwest 169 194 6,000  Level FlightAware
08:28PM 40.6980 -88.1390 331° Northwest 168 193 6,000  Level FlightAware
08:29PM 40.7140 -88.1500 332° Northwest 168 193 6,000  Level FlightAware
08:29PM 40.7350 -88.1660 330° Northwest 168 193 6,000  Level FlightAware
08:30PM 40.7550 -88.1810 330° Northwest 168 193 6,000  Level FlightAware
08:30PM 40.7690 -88.1910 332° Northwest 167 192 6,000  Level FlightAware
08:31PM 40.7900 -88.2060 332° Northwest 167 192 6,000  Level FlightAware
08:31PM 40.8080 -88.2190 331° Northwest 167 192 6,000  Level FlightAware
08:31PM 40.8170 -88.2250 333° Northwest 167 192 6,000  Level FlightAware
08:32PM 40.8360 -88.2390 331° Northwest 169 194 6,000  Level FlightAware
08:32PM 40.8480 -88.2480 330° Northwest 169 194 6,000  Level FlightAware
08:32PM 40.8670 -88.2620 331° Northwest 169 194 6,000  Level FlightAware
08:33PM 40.8790 -88.2710 330° Northwest 170 196 6,000  Level FlightAware
08:33PM 40.8970 -88.2840 331° Northwest 169 194 6,000  Level FlightAware
08:34PM 40.9180 -88.2990 332° Northwest 169 194 6,000  Level FlightAware
08:34PM 40.9370 -88.3130 331° Northwest 169 194 6,000  Level FlightAware
08:35PM 40.9560 -88.3270 331° Northwest 170 196 6,000  Level FlightAware
08:35PM 40.9660 -88.3340 332° Northwest 170 196 6,000  Level FlightAware
08:35PM 40.9800 -88.3440 332° Northwest 170 196 6,000  Level FlightAware
08:36PM 41.0020 -88.3600 331° Northwest 169 194 6,000  Level FlightAware
08:36PM 41.0240 -88.3770 330° Northwest 169 194 6,000  Level FlightAware
08:37PM 41.0440 -88.3910 332° Northwest 169 194 6,000  Level FlightAware
08:37PM 41.0620 -88.4050 330° Northwest 169 194 6,000  Level FlightAware
08:38PM 41.0800 -88.4180 331° Northwest 170 196 6,000  Level FlightAware
08:38PM 41.1000 -88.4330 331° Northwest 169 194 6,000  Level FlightAware
08:39PM 41.1210 -88.4480 332° Northwest 169 194 6,000  Level FlightAware
08:39PM 41.1390 -88.4610 331° Northwest 167 192 6,000  Level FlightAware
08:40PM 41.1590 -88.4760 331° Northwest 166 191 6,000  Level FlightAware
08:40PM 41.1790 -88.4900 332° Northwest 166 191 6,000  Level FlightAware
08:40PM 41.1950 -88.5020 331° Northwest 166 191 6,000  Level FlightAware
08:41PM 41.2150 -88.5170 331° Northwest 165 190 6,000  Level FlightAware
08:41PM 41.2280 -88.5270 330° Northwest 166 191 6,000  Level FlightAware
08:42PM 41.2470 -88.5410 331° Northwest 166 191 6,000  Level FlightAware
08:42PM 41.2660 -88.5550 331° Northwest 164 189 6,000  Level FlightAware
08:43PM 41.2840 -88.5680 332° Northwest 164 189 6,000  Level FlightAware
08:43PM 41.3030 -88.5820 331° Northwest 163 188 6,000  Level FlightAware
08:44PM 41.3210 -88.5960 330° Northwest 163 188 6,000  Level FlightAware
08:44PM 41.3400 -88.6090 333° Northwest 162 186 6,000  Level FlightAware
08:45PM 41.3580 -88.6230 330° Northwest 161 185 6,000  Level FlightAware
08:45PM 41.3660 -88.6290 331° Northwest 161 185 6,000  Level FlightAware
08:45PM 41.3870 -88.6440 332° Northwest 162 186 6,000  Level FlightAware
08:46PM 41.4070 -88.6540 339° North 168 193 6,000  Level FlightAware
08:46PM 41.4220 -88.6600 343° North 168 193 6,000  Level FlightAware
08:46PM 41.4340 -88.6640 346° North 169 194 6,000  Level FlightAware
08:47PM 41.4550 -88.6720 344° North 168 193 6,000  Level FlightAware
08:47PM 41.4760 -88.6800 344° North 167 192 6,000  Level FlightAware
08:48PM 41.4970 -88.6880 344° North 168 193 6,000  Level FlightAware
08:48PM 41.5120 -88.6940 343° North 168 193 6,000  Level FlightAware
08:48PM 41.5330 -88.7020 344° North 167 192 6,000  Level FlightAware
08:49PM 41.5530 -88.7100 343° North 166 191 6,000  Level FlightAware
08:49PM 41.5650 -88.7150 343° North 166 191 6,000  Level FlightAware
08:50PM 41.5870 -88.7230 345° North 165 190 6,000  Level FlightAware
08:50PM 41.6070 -88.7310 343° North 164 189 6,000  Level FlightAware
08:51PM 41.6270 -88.7390 343° North 164 189 6,000  Level FlightAware
08:51PM 41.6480 -88.7470 344° North 164 189 6,000  Level FlightAware
08:51PM 41.6570 -88.7500 346° North 163 188 6,000  Level FlightAware
08:52PM 41.6760 -88.7580 343° North 163 188 6,000  Level FlightAware
08:52PM 41.6970 -88.7650 346° North 163 188 6,000  Level FlightAware
08:52PM 41.7070 -88.7690 343° North 163 188 6,000  Level FlightAware
08:53PM 41.7240 -88.7760 343° North 162 186 6,000  Level FlightAware
08:53PM 41.7410 -88.7830 343° North 163 188 6,000  Level FlightAware
08:54PM 41.7620 -88.7910 344° North 163 188 6,000  Level FlightAware
08:54PM 41.7830 -88.7990 344° North 162 186 6,000  Level FlightAware
08:54PM 41.7940 -88.8030 345° North 161 185 6,000  Level FlightAware
08:55PM 41.8110 -88.8100 343° North 161 185 6,000  Level FlightAware
08:55PM 41.8290 -88.8170 344° North 162 186 6,000  Level FlightAware
08:56PM 41.8490 -88.8240 345° North 162 186 6,000  Level FlightAware
08:56PM 41.8680 -88.8320 343° North 162 186 6,000  Level FlightAware
08:57PM 41.8890 -88.8400 344° North 162 186 6,000  Level FlightAware
08:57PM 41.9090 -88.8480 343° North 163 188 6,000  Level FlightAware
08:58PM 41.9300 -88.8560 344° North 163 188 6,000  Level FlightAware
08:58PM 41.9500 -88.8640 343° North 164 189 6,000  Level FlightAware
08:59PM 41.9700 -88.8720 343° North 164 189 6,000  Level FlightAware
08:59PM 41.9790 -88.8750 346° North 166 191 6,000 -480 Level FlightAware
08:59PM 42.0030 -88.8850 343° North 176 203 5,700 -540 Descending FlightAware
09:00PM 42.0230 -88.8930 343° North 178 205 5,500 -540 Descending FlightAware
09:00PM 42.0400 -88.9010 341° North 179 206 5,300 -600 Descending FlightAware
09:00PM 42.0620 -88.9120 340° North 183 211 5,000 -540 Descending FlightAware
09:01PM 42.0840 -88.9230 340° North 183 211 4,800 -540 Descending FlightAware
09:01PM 42.1070 -88.9340 340° North 185 213 4,500 -600 Descending FlightAware
09:02PM 42.1270 -88.9440 340° North 185 213 4,300 -540 Descending FlightAware
09:02PM 42.1370 -88.9480 343° North 190 219 4,200 -480 Descending FlightAware
09:02PM 42.1600 -88.9570 344° North 191 220 4,000 -240 Descending FlightAware
09:03PM 42.1840 -88.9660 344° North 182 209 4,000  Level FlightAware
09:03PM 42.2050 -88.9740 344° North 179 206 4,000  Level FlightAware
09:04PM 42.2290 -88.9830 344° North 176 203 4,000  Level FlightAware
09:04PM 42.2500 -88.9910 344° North 175 201 4,000  Level FlightAware
09:05PM 42.2720 -89.0000 343° North 174 200 4,000  Level FlightAware
09:05PM 42.2940 -89.0080 345° North 174 200 4,000  Level FlightAware
09:06PM 42.3160 -89.0170 343° North 173 199 4,000  Level FlightAware
09:06PM 42.3370 -89.0250 344° North 173 199 4,000  Level FlightAware
09:07PM 42.3600 -89.0340 344° North 172 198 4,000  Level FlightAware
09:07PM 42.3760 -89.0400 345° North 172 198 4,000  Level FlightAware
09:07PM 42.3950 -89.0470 345° North 172 198 4,000  Level FlightAware
09:08PM 42.4170 -89.0560 343° North 172 198 4,000  Level FlightAware
09:08PM 42.4290 -89.0600 346° North 171 197 4,000  Level FlightAware
09:09PM 42.4490 -89.0680 344° North 172 198 4,000  Level FlightAware
09:09PM 42.4660 -89.0750 343° North 172 198 4,000  Level FlightAware
09:09PM 42.4780 -89.0790 346° North 172 198 4,000  Level FlightAware
09:10PM 42.4980 -89.0870 344° North 171 197 4,000  Level FlightAware
09:10PM 42.5200 -89.0950 345° North 171 197 4,000  Level FlightAware
09:11PM 42.5350 -89.1010 344° North 170 196 4,000  Level FlightAware
09:11PM 42.5560 -89.1090 344° North 171 197 4,000  Level FlightAware
09:11PM 42.5670 -89.1140 341° North 171 197 4,000  Level FlightAware
09:12PM 42.5880 -89.1220 344° North 170 196 4,000  Level FlightAware
09:12PM 42.6060 -89.1290 344° North 170 196 4,000  Level FlightAware
09:12PM 42.6220 -89.1350 345° North 169 194 4,000  Level FlightAware
09:13PM 42.6410 -89.1420 345° North 170 196 4,000  Level FlightAware
09:13PM 42.6530 -89.1470 343° North 170 196 4,000  Level FlightAware
09:14PM 42.6750 -89.1550 345° North 171 197 4,000  Level FlightAware
09:14PM 42.6960 -89.1640 343° North 171 197 4,000  Level FlightAware
09:15PM 42.7170 -89.1720 344° North 170 196 4,000  Level FlightAware
09:15PM 42.7400 -89.1810 344° North 169 194 4,000  Level FlightAware
09:15PM 42.7490 -89.1840 346° North 169 194 4,000  Level FlightAware
09:16PM 42.7690 -89.1920 344° North 168 193 4,000  Level FlightAware
09:16PM 42.7850 -89.1980 345° North 167 192 4,000  Level FlightAware
09:16PM 42.8050 -89.2060 344° North 166 191 4,000  Level FlightAware
09:17PM 42.8170 -89.2110 343° North 167 192 4,000  Level FlightAware
09:17PM 42.8240 -89.2130 348° North 175 201 4,000  Level FlightAware
09:17PM 42.8490 -89.2070 10° North 172 198 4,000  Level FlightAware
09:18PM 42.8710 -89.2000 13° North 162 186 4,000  Level FlightAware
09:18PM 42.8810 -89.1970 12° North 160 184 4,000  Level FlightAware
09:19PM 42.9030 -89.1920 North 152 175 4,000 -120 Level FlightAware
09:19PM 42.9240 -89.1910 North 161 185 3,900 -300 Descending FlightAware
09:19PM 42.9320 -89.1900 North 165 190 3,800 -660 Descending FlightAware
09:20PM 42.9540 -89.1900 360° North 172 198 3,500 -540 Descending FlightAware
09:20PM 42.9770 -89.1890 North 178 205 3,300 -480 Descending FlightAware
09:21PM 42.9970 -89.1880 North 175 201 3,100 -540 Descending FlightAware
09:21PM 43.0140 -89.1870 North 174 200 2,900 -300 Descending FlightAware
09:21PM 43.0330 -89.1870 360° North 174 200 2,900 -300 Level FlightAware
09:22PM 43.0440 -89.1980 324° Northwest 148 170 2,700 -240 Descending FlightAware
09:22PM 43.0720 -89.2110 341° North 137 158 2,700  Level FlightAware
09:23PM 43.0960 -89.2230 340° North 145 167 2,700 -180 Level FlightAware
09:24PM 43.1240 -89.2350 343° North 163 188 2,500 -300 Descending FlightAware
09:24PM 43.1460 -89.2440 343° North 163 188 2,400 -480 Descending FlightAware
09:25PM 43.1617 -89.2833 343° North 135 155 1,700 -540 Descending Chicago Center
09:26PM 43.1650 -89.3233 277° West 111 128 1,300 -420 Descending Chicago Center
09:28PM 43.1333 -89.3333 340° North  Level FlightAware Approximate